createdAt,value
2023-02-04T00:00:50.434Z,5.3
2023-02-04T00:01:50.462Z,5.3
2023-02-04T00:02:50.531Z,5.3
2023-02-04T00:03:50.440Z,5.2
2023-02-04T00:04:50.438Z,5.3
2023-02-04T00:05:50.479Z,5.4
2023-02-04T00:06:50.433Z,5.3
2023-02-04T00:07:50.448Z,5.3
2023-02-04T00:08:50.436Z,5.4
2023-02-04T00:09:50.427Z,5.4
2023-02-04T00:10:50.479Z,5.4
2023-02-04T00:11:50.439Z,5.5
2023-02-04T00:12:50.455Z,5.4
2023-02-04T00:13:50.440Z,5.4
2023-02-04T00:14:50.445Z,5.3
2023-02-04T00:15:50.525Z,5.3
2023-02-04T00:16:50.434Z,5.3
2023-02-04T00:17:50.446Z,5.4
2023-02-04T00:18:50.485Z,5.3
2023-02-04T00:19:50.432Z,5.2
2023-02-04T00:20:50.453Z,5.2
2023-02-04T00:21:50.454Z,5.3
2023-02-04T00:22:50.429Z,5.3
2023-02-04T00:23:50.442Z,5.2
2023-02-04T00:24:50.449Z,5.3
2023-02-04T00:25:50.441Z,5.3
2023-02-04T00:26:50.453Z,5.3
2023-02-04T00:27:50.486Z,5.3
2023-02-04T00:28:50.438Z,5.3
2023-02-04T00:29:50.446Z,5.3
2023-02-04T00:30:50.444Z,5.3
2023-02-04T00:31:50.566Z,5.3
2023-02-04T00:32:50.449Z,5.3
2023-02-04T00:33:50.459Z,5.4
2023-02-04T00:34:50.444Z,5.3
2023-02-04T00:35:50.434Z,5.3
2023-02-04T00:36:50.423Z,5.3
2023-02-04T00:37:50.425Z,5.4
2023-02-04T00:38:50.454Z,5.4
2023-02-04T00:39:50.430Z,5.3
2023-02-04T00:40:50.427Z,5.2
2023-02-04T00:41:50.429Z,5.3
2023-02-04T00:42:50.441Z,5.3
2023-02-04T00:43:50.434Z,5.2
2023-02-04T00:44:50.442Z,5.3
2023-02-04T00:45:50.475Z,5.3
2023-02-04T00:46:50.440Z,5.3
2023-02-04T00:47:50.441Z,5.2
2023-02-04T00:48:50.452Z,5.4
2023-02-04T00:49:50.451Z,5.4
2023-02-04T00:50:50.443Z,5.3
2023-02-04T00:51:50.459Z,5.3
2023-02-04T00:52:50.441Z,5.3
2023-02-04T00:53:50.487Z,5.2
2023-02-04T00:54:50.496Z,5.2
2023-02-04T00:55:50.432Z,5.2
2023-02-04T00:56:50.434Z,5.2
2023-02-04T00:57:50.460Z,5.4
2023-02-04T00:58:50.441Z,5.3
2023-02-04T00:59:50.440Z,5.3
2023-02-04T01:00:50.532Z,5.3
2023-02-04T01:01:50.449Z,5.2
2023-02-04T01:02:50.521Z,5.2
2023-02-04T01:03:50.451Z,5.2
2023-02-04T01:04:50.441Z,5.2
2023-02-04T01:05:50.439Z,5.2
2023-02-04T01:06:50.465Z,5.2
2023-02-04T01:07:50.452Z,5.1
2023-02-04T01:08:50.438Z,5.1
2023-02-04T01:09:50.447Z,5.1
2023-02-04T01:10:50.436Z,5.1
2023-02-04T01:11:50.433Z,5
2023-02-04T01:12:50.479Z,5.1
2023-02-04T01:13:50.436Z,5.1
2023-02-04T01:14:50.452Z,5.1
2023-02-04T01:15:50.431Z,4.9
2023-02-04T01:16:50.481Z,5
2023-02-04T01:17:50.457Z,4.9
2023-02-04T01:18:50.479Z,5.1
2023-02-04T01:19:50.444Z,5
2023-02-04T01:20:50.470Z,5
2023-02-04T01:22:50.469Z,5
2023-02-04T01:23:50.438Z,5
2023-02-04T01:24:50.478Z,4.9
2023-02-04T01:25:50.448Z,4.9
2023-02-04T01:26:50.437Z,4.8
2023-02-04T01:27:50.518Z,4.8
2023-02-04T01:28:50.436Z,4.9
2023-02-04T01:29:50.462Z,4.9
2023-02-04T01:30:50.496Z,4.8
2023-02-04T01:31:50.492Z,4.9
2023-02-04T01:32:50.437Z,4.8
2023-02-04T01:33:50.470Z,5
2023-02-04T01:34:50.444Z,5
2023-02-04T01:35:50.442Z,5
2023-02-04T01:36:50.452Z,4.9
2023-02-04T01:37:50.467Z,4.9
2023-02-04T01:38:50.439Z,4.9
2023-02-04T01:39:50.463Z,4.9
2023-02-04T01:40:50.439Z,5
2023-02-04T01:41:50.453Z,4.9
2023-02-04T01:42:50.446Z,4.9
2023-02-04T01:43:50.482Z,4.8
2023-02-04T01:44:50.443Z,4.9
2023-02-04T01:45:50.492Z,4.9
2023-02-04T01:46:50.439Z,5
2023-02-04T01:47:50.440Z,4.9
2023-02-04T01:48:50.462Z,4.9
2023-02-04T01:49:50.433Z,4.9
2023-02-04T01:50:50.441Z,5
2023-02-04T01:51:50.433Z,4.9
2023-02-04T01:52:50.450Z,4.8
2023-02-04T01:53:50.461Z,4.9
2023-02-04T01:54:50.441Z,4.9
2023-02-04T01:55:50.460Z,4.8
2023-02-04T01:56:50.449Z,4.8
2023-02-04T01:57:50.447Z,4.9
2023-02-04T01:59:50.490Z,4.8
2023-02-04T02:00:50.448Z,4.8
2023-02-04T02:01:50.516Z,4.9
2023-02-04T02:02:50.474Z,4.8
2023-02-04T02:03:50.463Z,4.8
2023-02-04T02:04:50.435Z,4.9
2023-02-04T02:05:50.440Z,4.9
2023-02-04T02:06:50.484Z,4.9
2023-02-04T02:07:50.464Z,4.9
2023-02-04T02:08:50.437Z,4.9
2023-02-04T02:09:50.488Z,4.9
2023-02-04T02:10:50.445Z,4.9
2023-02-04T02:11:50.441Z,5
2023-02-04T02:12:50.452Z,4.9
2023-02-04T02:13:50.460Z,4.9
2023-02-04T02:14:50.429Z,5
2023-02-04T02:15:50.434Z,5
2023-02-04T02:16:50.475Z,4.9
2023-02-04T02:17:50.437Z,5
2023-02-04T02:18:50.456Z,4.9
2023-02-04T02:19:50.442Z,4.9
2023-02-04T02:20:50.441Z,4.9
2023-02-04T02:21:50.434Z,4.9
2023-02-04T02:22:50.449Z,4.9
2023-02-04T02:23:50.438Z,4.9
2023-02-04T02:24:50.462Z,4.9
2023-02-04T02:25:50.447Z,4.9
2023-02-04T02:26:50.443Z,5
2023-02-04T02:27:50.522Z,5
2023-02-04T02:28:50.455Z,5.1
2023-02-04T02:29:50.427Z,5
2023-02-04T02:30:50.578Z,4.9
2023-02-04T02:31:50.608Z,5
2023-02-04T02:32:50.430Z,5
2023-02-04T02:33:50.465Z,5
2023-02-04T02:34:50.456Z,5
2023-02-04T02:35:50.435Z,5
2023-02-04T02:36:50.472Z,5
2023-02-04T02:37:50.437Z,5
2023-02-04T02:38:50.442Z,5.1
2023-02-04T02:39:50.445Z,5
2023-02-04T02:40:50.456Z,5.1
2023-02-04T02:41:50.457Z,5.1
2023-02-04T02:42:50.442Z,5
2023-02-04T02:43:50.434Z,5.1
2023-02-04T02:44:50.426Z,5.1
2023-02-04T02:45:50.510Z,5.1
2023-02-04T02:46:50.480Z,5.1
2023-02-04T02:47:50.439Z,5.1
2023-02-04T02:48:50.440Z,5.2
2023-02-04T02:49:50.440Z,5
2023-02-04T02:50:50.438Z,5.1
2023-02-04T02:51:50.442Z,5
2023-02-04T02:52:50.448Z,5
2023-02-04T02:53:50.431Z,5.1
2023-02-04T02:54:50.643Z,5
2023-02-04T02:55:50.468Z,5
2023-02-04T02:56:50.438Z,5.1
2023-02-04T02:57:50.427Z,5.2
2023-02-04T02:58:50.435Z,5.2
2023-02-04T02:59:50.492Z,5.2
2023-02-04T03:00:50.432Z,5.2
2023-02-04T03:01:50.440Z,5.2
2023-02-04T03:02:50.473Z,5.2
2023-02-04T03:03:50.486Z,5.1
2023-02-04T03:04:50.434Z,5.1
2023-02-04T03:05:50.434Z,5.2
2023-02-04T03:06:50.424Z,5.2
2023-02-04T03:07:50.435Z,5.2
2023-02-04T03:08:50.459Z,5.2
2023-02-04T03:09:50.429Z,5.4
2023-02-04T03:10:50.439Z,5.3
2023-02-04T03:11:50.425Z,5.4
2023-02-04T03:12:50.423Z,5.4
2023-02-04T03:13:50.443Z,5.4
2023-02-04T03:14:50.437Z,5.4
2023-02-04T03:15:50.536Z,5.5
2023-02-04T03:16:50.447Z,5.6
2023-02-04T03:17:50.442Z,5.6
2023-02-04T03:18:50.442Z,5.5
2023-02-04T03:19:50.432Z,5.6
2023-02-04T03:20:50.437Z,5.7
2023-02-04T03:21:50.429Z,5.6
2023-02-04T03:22:50.444Z,5.7
2023-02-04T03:23:50.428Z,5.8
2023-02-04T03:24:50.443Z,5.8
2023-02-04T03:25:50.446Z,5.8
2023-02-04T03:26:50.498Z,5.8
2023-02-04T03:27:50.486Z,5.8
2023-02-04T03:28:50.439Z,5.8
2023-02-04T03:29:50.440Z,5.9
2023-02-04T03:30:50.534Z,5.8
2023-02-04T03:31:50.595Z,5.8
2023-02-04T03:32:50.434Z,5.9
2023-02-04T03:33:50.440Z,5.9
2023-02-04T03:34:50.436Z,5.9
2023-02-04T03:35:50.464Z,5.9
2023-02-04T03:36:50.464Z,5.9
2023-02-04T03:37:50.460Z,6
2023-02-04T03:38:50.433Z,6
2023-02-04T03:39:50.442Z,6
2023-02-04T03:40:50.440Z,6
2023-02-04T03:41:50.465Z,6
2023-02-04T03:42:50.448Z,6
2023-02-04T03:43:50.443Z,5.9
2023-02-04T03:44:50.436Z,6
2023-02-04T03:45:50.456Z,6
2023-02-04T03:46:50.439Z,6.1
2023-02-04T03:47:50.457Z,6.1
2023-02-04T03:48:50.439Z,6.1
2023-02-04T03:49:50.451Z,6
2023-02-04T03:50:50.449Z,6.1
2023-02-04T03:51:50.437Z,6.2
2023-02-04T03:52:50.462Z,6.1
2023-02-04T03:53:50.501Z,6.1
2023-02-04T03:54:50.472Z,6.2
2023-02-04T03:55:50.463Z,6.2
2023-02-04T03:56:50.452Z,6.1
2023-02-04T03:57:50.473Z,6.2
2023-02-04T03:58:50.550Z,6.2
2023-02-04T03:59:50.452Z,6.2
2023-02-04T04:00:50.473Z,6.1
2023-02-04T04:01:50.485Z,6.1
2023-02-04T04:02:50.491Z,6.1
2023-02-04T04:03:51.157Z,6.1
2023-02-04T04:04:50.446Z,6.2
2023-02-04T04:05:50.438Z,6.1
2023-02-04T04:06:50.429Z,6.3
2023-02-04T04:07:50.443Z,6.1
2023-02-04T04:08:50.431Z,6.1
2023-02-04T04:09:50.441Z,6.1
2023-02-04T04:10:50.439Z,6.2
2023-02-04T04:11:50.459Z,6.2
2023-02-04T04:12:50.453Z,6.2
2023-02-04T04:13:50.489Z,6.3
2023-02-04T04:14:50.445Z,6.3
2023-02-04T04:15:50.520Z,6.3
2023-02-04T04:16:50.448Z,6.3
2023-02-04T04:17:50.471Z,6.3
2023-02-04T04:18:50.451Z,6.2
2023-02-04T04:19:50.434Z,6.3
2023-02-04T04:20:50.438Z,6.3
2023-02-04T04:21:50.433Z,6.3
2023-02-04T04:22:50.436Z,6.3
2023-02-04T04:23:50.423Z,6.3
2023-02-04T04:24:50.441Z,6.3
2023-02-04T04:25:50.441Z,6.3
2023-02-04T04:26:50.437Z,6.3
2023-02-04T04:27:50.462Z,6.3
2023-02-04T04:28:50.456Z,6.2
2023-02-04T04:29:50.519Z,6.2
2023-02-04T04:30:50.462Z,6.3
2023-02-04T04:31:50.496Z,6.3
2023-02-04T04:32:50.428Z,6.4
2023-02-04T04:33:50.433Z,6.3
2023-02-04T04:34:50.436Z,6.4
2023-02-04T04:35:50.434Z,6.3
2023-02-04T04:36:50.425Z,6.3
2023-02-04T04:37:50.443Z,6.3
2023-02-04T04:38:50.444Z,6.4
2023-02-04T04:39:50.436Z,6.5
2023-02-04T04:40:50.431Z,6.4
2023-02-04T04:41:50.433Z,6.4
2023-02-04T04:42:50.424Z,6.4
2023-02-04T04:43:50.591Z,6.6
2023-02-04T04:44:50.433Z,6.5
2023-02-04T04:45:50.441Z,6.5
2023-02-04T04:46:50.460Z,6.5
2023-02-04T04:47:50.419Z,6.5
2023-02-04T04:48:50.428Z,6.4
2023-02-04T04:49:50.438Z,6.4
2023-02-04T04:50:50.421Z,6.5
2023-02-04T04:51:50.431Z,6.5
2023-02-04T04:52:50.428Z,6.5
2023-02-04T04:53:50.444Z,6.5
2023-02-04T04:54:50.425Z,6.5
2023-02-04T04:55:50.436Z,6.4
2023-02-04T04:56:50.421Z,6.4
2023-02-04T04:57:50.414Z,6.6
2023-02-04T04:58:50.415Z,6.5
2023-02-04T04:59:50.458Z,6.4
2023-02-04T05:00:50.485Z,6.5
2023-02-04T05:01:50.421Z,6.6
2023-02-04T05:02:50.424Z,6.6
2023-02-04T05:03:57.149Z,6.6
2023-02-04T05:04:50.472Z,6.6
2023-02-04T05:05:50.441Z,6.6
2023-02-04T05:06:50.422Z,6.6
2023-02-04T05:07:50.435Z,6.6
2023-02-04T05:08:50.428Z,6.6
2023-02-04T05:09:50.437Z,6.6
2023-02-04T05:10:50.433Z,6.6
2023-02-04T05:11:50.440Z,6.6
2023-02-04T05:12:50.427Z,6.6
2023-02-04T05:13:50.433Z,6.6
2023-02-04T05:14:50.422Z,6.7
2023-02-04T05:15:50.426Z,6.7
2023-02-04T05:16:50.436Z,6.7
2023-02-04T05:17:50.439Z,6.7
2023-02-04T05:18:50.439Z,6.7
2023-02-04T05:19:50.430Z,6.7
2023-02-04T05:20:50.433Z,6.6
2023-02-04T05:21:50.437Z,6.6
2023-02-04T05:22:50.441Z,6.5
2023-02-04T05:23:50.434Z,6.7
2023-02-04T05:24:50.441Z,6.7
2023-02-04T05:25:50.447Z,6.8
2023-02-04T05:26:50.454Z,6.8
2023-02-04T05:27:50.436Z,6.7
2023-02-04T05:28:50.430Z,6.8
2023-02-04T05:29:50.439Z,6.7
2023-02-04T05:30:50.531Z,6.5
2023-02-04T05:31:50.556Z,6.6
2023-02-04T05:32:50.439Z,6.6
2023-02-04T05:33:50.430Z,6.6
2023-02-04T05:34:50.450Z,6.8
2023-02-04T05:35:50.439Z,6.7
2023-02-04T05:36:50.454Z,6.7
2023-02-04T05:37:50.457Z,6.7
2023-02-04T05:38:50.446Z,6.7
2023-02-04T05:39:50.444Z,6.7
2023-02-04T05:40:50.425Z,6.8
2023-02-04T05:41:50.438Z,6.9
2023-02-04T05:42:50.434Z,6.9
2023-02-04T05:43:50.433Z,6.8
2023-02-04T05:44:50.433Z,6.8
2023-02-04T05:45:50.469Z,6.8
2023-02-04T05:46:50.438Z,6.8
2023-02-04T05:47:50.430Z,6.9
2023-02-04T05:48:50.430Z,6.9
2023-02-04T05:49:50.432Z,6.8
2023-02-04T05:50:50.420Z,6.8
2023-02-04T05:51:50.433Z,6.8
2023-02-04T05:52:50.430Z,6.7
2023-02-04T05:53:50.429Z,6.8
2023-02-04T05:54:50.446Z,6.8
2023-02-04T05:55:50.431Z,6.8
2023-02-04T05:56:50.437Z,6.9
2023-02-04T05:57:50.426Z,6.9
2023-02-04T05:58:50.426Z,6.9
2023-02-04T05:59:50.433Z,6.8
2023-02-04T06:00:50.449Z,6.8
2023-02-04T06:01:50.456Z,6.8
2023-02-04T06:02:50.447Z,6.9
2023-02-04T06:03:44.632Z,6.9
2023-02-04T06:04:50.449Z,6.8
2023-02-04T06:05:50.425Z,6.8
2023-02-04T06:06:50.427Z,6.8
2023-02-04T06:07:50.438Z,6.8
2023-02-04T06:08:50.447Z,6.8
2023-02-04T06:09:50.454Z,6.7
2023-02-04T06:10:50.421Z,6.7
2023-02-04T06:11:50.446Z,6.7
2023-02-04T06:12:50.478Z,6.9
2023-02-04T06:13:50.427Z,6.9
2023-02-04T06:14:50.487Z,6.9
2023-02-04T06:15:50.449Z,6.9
2023-02-04T06:16:50.479Z,6.8
2023-02-04T06:17:50.439Z,6.8
2023-02-04T06:18:50.469Z,6.8
2023-02-04T06:19:50.434Z,6.8
2023-02-04T06:20:50.424Z,6.9
2023-02-04T06:21:50.423Z,6.9
2023-02-04T06:22:50.429Z,6.8
2023-02-04T06:23:50.427Z,6.9
2023-02-04T06:24:50.464Z,6.9
2023-02-04T06:25:50.417Z,6.9
2023-02-04T06:26:50.434Z,6.9
2023-02-04T06:27:50.517Z,6.9
2023-02-04T06:28:50.433Z,6.8
2023-02-04T06:29:50.427Z,6.9
2023-02-04T06:30:50.879Z,6.8
2023-02-04T06:31:50.546Z,7
2023-02-04T06:32:50.463Z,6.9
2023-02-04T06:33:50.437Z,6.8
2023-02-04T06:34:50.509Z,6.9
2023-02-04T06:35:50.425Z,6.9
2023-02-04T06:36:50.432Z,6.8
2023-02-04T06:37:50.427Z,6.9
2023-02-04T06:38:50.426Z,6.9
2023-02-04T06:39:50.436Z,6.9
2023-02-04T06:40:50.431Z,6.9
2023-02-04T06:41:50.426Z,6.9
2023-02-04T06:42:50.455Z,6.9
2023-02-04T06:43:50.437Z,6.8
2023-02-04T06:44:50.452Z,6.9
2023-02-04T06:45:50.459Z,6.9
2023-02-04T06:46:50.432Z,6.9
2023-02-04T06:47:50.432Z,7
2023-02-04T06:48:50.428Z,7
2023-02-04T06:49:50.435Z,6.9
2023-02-04T06:50:50.443Z,7
2023-02-04T06:51:50.438Z,7
2023-02-04T06:52:50.428Z,7
2023-02-04T06:53:50.426Z,7
2023-02-04T06:54:50.437Z,7
2023-02-04T06:55:50.425Z,7
2023-02-04T06:56:50.454Z,7.1
2023-02-04T06:57:50.431Z,7.1
2023-02-04T06:58:50.449Z,7
2023-02-04T06:59:50.441Z,7
2023-02-04T07:00:50.440Z,7.1
2023-02-04T07:01:50.494Z,7
2023-02-04T07:02:50.512Z,7
2023-02-04T07:03:50.461Z,7.1
2023-02-04T07:04:50.429Z,7
2023-02-04T07:05:50.434Z,6.9
2023-02-04T07:06:50.454Z,7
2023-02-04T07:07:50.425Z,7.1
2023-02-04T07:08:50.431Z,7.1
2023-02-04T07:09:50.439Z,7
2023-02-04T07:10:50.436Z,7.2
2023-02-04T07:11:50.430Z,7
2023-02-04T07:12:50.444Z,7
2023-02-04T07:13:50.485Z,7
2023-02-04T07:14:50.428Z,7
2023-02-04T07:15:50.462Z,7
2023-02-04T07:16:50.424Z,7
2023-02-04T07:17:50.442Z,7
2023-02-04T07:18:50.425Z,7.1
2023-02-04T07:19:50.432Z,7
2023-02-04T07:20:50.437Z,7
2023-02-04T07:21:50.430Z,7
2023-02-04T07:22:50.432Z,7
2023-02-04T07:24:50.548Z,7
2023-02-04T07:25:50.565Z,7
2023-02-04T07:26:50.430Z,7
2023-02-04T07:27:50.458Z,6.9
2023-02-04T07:28:50.503Z,7
2023-02-04T07:29:50.433Z,7
2023-02-04T07:30:50.552Z,6.9
2023-02-04T07:31:50.598Z,7.1
2023-02-04T07:32:50.431Z,7.1
2023-02-04T07:33:50.433Z,7.1
2023-02-04T07:34:50.490Z,7
2023-02-04T07:35:50.498Z,7
2023-02-04T07:36:50.532Z,7.1
2023-02-04T07:37:50.437Z,7.1
2023-02-04T07:38:50.440Z,7.1
2023-02-04T07:39:50.471Z,7.1
2023-02-04T07:40:50.429Z,7.2
2023-02-04T07:41:50.420Z,7
2023-02-04T07:42:50.419Z,7.1
2023-02-04T07:43:50.435Z,7.1
2023-02-04T07:44:50.512Z,7
2023-02-04T07:45:50.425Z,7
2023-02-04T07:46:50.425Z,7.1
2023-02-04T07:47:50.418Z,7.1
2023-02-04T07:48:50.417Z,7.1
2023-02-04T07:49:50.419Z,7.1
2023-02-04T07:50:50.417Z,7.1
2023-02-04T07:51:50.503Z,7.1
2023-02-04T07:52:50.430Z,7.1
2023-02-04T07:53:50.427Z,7.2
2023-02-04T07:54:50.422Z,7
2023-02-04T07:55:50.416Z,7
2023-02-04T07:56:50.421Z,7.1
2023-02-04T07:57:50.421Z,7.1
2023-02-04T07:58:50.474Z,7.2
2023-02-04T07:59:50.429Z,7.2
2023-02-04T08:00:50.410Z,7.3
2023-02-04T08:01:50.460Z,7.2
2023-02-04T08:02:50.450Z,7.2
2023-02-04T08:03:50.417Z,7.2
2023-02-04T08:04:50.417Z,7.2
2023-02-04T08:05:50.442Z,7.3
2023-02-04T08:06:50.416Z,7.2
2023-02-04T08:07:50.411Z,7.2
2023-02-04T08:08:50.420Z,7.2
2023-02-04T08:09:50.409Z,7.2
2023-02-04T08:10:50.421Z,7.2
2023-02-04T08:11:50.409Z,7.1
2023-02-04T08:12:50.406Z,7.2
2023-02-04T08:13:50.420Z,7.2
2023-02-04T08:14:50.433Z,7.2
2023-02-04T08:15:50.489Z,7.2
2023-02-04T08:17:50.470Z,7.2
2023-02-04T08:18:50.406Z,7.2
2023-02-04T08:19:50.413Z,7.2
2023-02-04T08:20:50.432Z,7.2
2023-02-04T08:21:50.407Z,7.2
2023-02-04T08:22:50.406Z,7.3
2023-02-04T08:23:50.420Z,7.3
2023-02-04T08:24:50.405Z,7.2
2023-02-04T08:25:50.420Z,7.3
2023-02-04T08:26:51.127Z,7.3
2023-02-04T08:27:50.448Z,7.3
2023-02-04T08:28:50.408Z,7.2
2023-02-04T08:29:50.409Z,7.2
2023-02-04T08:30:50.423Z,7.2
2023-02-04T08:31:50.490Z,7.3
2023-02-04T08:32:50.412Z,7.3
2023-02-04T08:33:50.412Z,7.4
2023-02-04T08:34:50.405Z,7.3
2023-02-04T08:35:50.397Z,7.2
2023-02-04T08:36:50.434Z,7.3
2023-02-04T08:37:50.406Z,7.3
2023-02-04T08:38:50.410Z,7.4
2023-02-04T08:39:50.402Z,7.4
2023-02-04T08:40:50.602Z,7.4
2023-02-04T08:41:50.398Z,7.3
2023-02-04T08:42:50.413Z,7.3
2023-02-04T08:43:50.405Z,7.3
2023-02-04T08:44:50.406Z,7.3
2023-02-04T08:45:50.410Z,7.2
2023-02-04T08:46:50.443Z,7.2
2023-02-04T08:47:50.439Z,7.1
2023-02-04T08:48:50.439Z,7.3
2023-02-04T08:49:50.411Z,7.3
2023-02-04T08:50:50.428Z,7.4
2023-02-04T08:51:50.424Z,7.3
2023-02-04T08:52:50.428Z,7.3
2023-02-04T08:53:50.415Z,7.3
2023-02-04T08:54:50.419Z,7.4
2023-02-04T08:56:50.431Z,7.1
2023-02-04T08:57:50.443Z,7.2
2023-02-04T08:58:50.432Z,7.2
2023-02-04T08:59:50.433Z,7.3
2023-02-04T09:00:50.537Z,7.4
2023-02-04T09:01:51.249Z,7.5
2023-02-04T09:02:50.437Z,7.4
2023-02-04T09:03:50.425Z,7.4
2023-02-04T09:04:50.436Z,7.3
2023-02-04T09:05:50.428Z,7.4
2023-02-04T09:06:50.430Z,7.5
2023-02-04T09:07:50.462Z,7.5
2023-02-04T09:08:50.435Z,7.4
2023-02-04T09:09:50.450Z,7.5
2023-02-04T09:10:50.448Z,7.2
2023-02-04T09:11:50.442Z,7.1
2023-02-04T09:12:50.457Z,7.2
2023-02-04T09:13:50.444Z,7.2
2023-02-04T09:14:50.444Z,7.2
2023-02-04T09:15:50.448Z,7.1
2023-02-04T09:16:50.460Z,7.1
2023-02-04T09:17:50.439Z,7.2
2023-02-04T09:18:50.433Z,7.1
2023-02-04T09:19:50.444Z,7.2
2023-02-04T09:20:50.445Z,7.1
2023-02-04T09:21:50.439Z,7.1
2023-02-04T09:22:50.446Z,7.1
2023-02-04T09:23:50.452Z,7.2
2023-02-04T09:24:50.464Z,7.3
2023-02-04T09:25:50.451Z,7.4
2023-02-04T09:26:50.452Z,7.3
2023-02-04T09:27:50.529Z,7.2
2023-02-04T09:28:50.439Z,7.2
2023-02-04T09:29:50.453Z,7.4
2023-02-04T09:30:50.523Z,7.5
2023-02-04T09:31:50.518Z,7.4
2023-02-04T09:32:50.442Z,7.4
2023-02-04T09:33:50.455Z,7.3
2023-02-04T09:34:50.474Z,7.3
2023-02-04T09:35:50.470Z,7.1
2023-02-04T09:36:50.454Z,7.3
2023-02-04T09:37:50.471Z,7.3
2023-02-04T09:38:50.485Z,7.2
2023-02-04T09:39:50.463Z,7.2
2023-02-04T09:40:50.465Z,7.3
2023-02-04T09:41:50.457Z,7.3
2023-02-04T09:42:50.444Z,7.4
2023-02-04T09:43:50.452Z,7.3
2023-02-04T09:44:50.449Z,7.2
2023-02-04T09:45:50.485Z,7.1
2023-02-04T09:46:50.493Z,7
2023-02-04T09:47:50.474Z,7.1
2023-02-04T09:48:50.445Z,7
2023-02-04T09:49:50.451Z,7.1
2023-02-04T09:50:50.444Z,7.1
2023-02-04T09:51:50.449Z,6.9
2023-02-04T09:52:50.450Z,7
2023-02-04T09:53:50.459Z,7
2023-02-04T09:54:50.450Z,7
2023-02-04T09:55:50.450Z,7.1
2023-02-04T09:56:50.452Z,7
2023-02-04T09:57:50.447Z,7
2023-02-04T09:58:50.444Z,7
2023-02-04T09:59:50.430Z,6.9
2023-02-04T10:00:50.481Z,6.9
2023-02-04T10:01:50.434Z,7
2023-02-04T10:02:50.465Z,7.1
2023-02-04T10:03:50.569Z,7.1
2023-02-04T10:04:50.435Z,7
2023-02-04T10:05:50.434Z,7.1
2023-02-04T10:06:50.425Z,7.1
2023-02-04T10:07:50.431Z,7.1
2023-02-04T10:08:50.435Z,6.9
2023-02-04T10:09:50.493Z,6.9
2023-02-04T10:10:50.472Z,7
2023-02-04T10:11:50.433Z,6.9
2023-02-04T10:12:50.427Z,6.9
2023-02-04T10:13:50.442Z,7
2023-02-04T10:14:50.442Z,7
2023-02-04T10:15:50.454Z,7.1
2023-02-04T10:16:50.522Z,7
2023-02-04T10:17:50.428Z,6.9
2023-02-04T10:18:50.420Z,7
2023-02-04T10:19:50.425Z,7
2023-02-04T10:20:50.428Z,7.1
2023-02-04T10:21:50.444Z,7.1
2023-02-04T10:22:50.490Z,7.2
2023-02-04T10:23:50.424Z,7.1
2023-02-04T10:24:50.421Z,7.1
2023-02-04T10:25:50.423Z,7.1
2023-02-04T10:26:50.449Z,6.9
2023-02-04T10:27:50.498Z,6.9
2023-02-04T10:28:50.432Z,7
2023-02-04T10:29:50.426Z,6.9
2023-02-04T10:30:50.566Z,6.9
2023-02-04T10:31:50.687Z,6.9
2023-02-04T10:32:50.433Z,6.9
2023-02-04T10:33:50.427Z,6.9
2023-02-04T10:34:50.440Z,7
2023-02-04T10:35:50.439Z,6.8
2023-02-04T10:36:50.459Z,6.8
2023-02-04T10:37:50.421Z,6.8
2023-02-04T10:38:50.429Z,6.8
2023-02-04T10:39:50.429Z,6.8
2023-02-04T10:40:50.462Z,6.8
2023-02-04T10:41:50.427Z,6.9
2023-02-04T10:42:50.431Z,6.7
2023-02-04T10:43:50.425Z,6.7
2023-02-04T10:44:50.418Z,6.7
2023-02-04T10:45:50.467Z,6.9
2023-02-04T10:46:50.443Z,6.9
2023-02-04T10:47:50.444Z,7
2023-02-04T10:48:50.448Z,7.1
2023-02-04T10:49:50.434Z,7.1
2023-02-04T10:50:50.440Z,7.1
2023-02-04T10:51:50.478Z,7.2
2023-02-04T10:52:50.474Z,7
2023-02-04T10:53:50.500Z,7
2023-02-04T10:54:50.421Z,7
2023-02-04T10:55:50.443Z,7.1
2023-02-04T10:56:50.446Z,7
2023-02-04T10:57:50.461Z,7.2
2023-02-04T10:58:50.434Z,7.2
2023-02-04T10:59:50.427Z,7.1
2023-02-04T11:00:50.426Z,7.1
2023-02-04T11:01:50.474Z,7.2
2023-02-04T11:02:50.450Z,7.1
2023-02-04T11:03:52.398Z,7.2
2023-02-04T11:04:50.433Z,7
2023-02-04T11:05:50.435Z,7.1
2023-02-04T11:06:50.432Z,7.1
2023-02-04T11:07:50.446Z,7
2023-02-04T11:08:50.435Z,7.2
2023-02-04T11:09:50.435Z,6.9
2023-02-04T11:10:50.438Z,6.8
2023-02-04T11:11:50.479Z,6.7
2023-02-04T11:12:50.438Z,6.8
2023-02-04T11:13:50.435Z,6.7
2023-02-04T11:14:50.436Z,6.6
2023-02-04T11:15:51.170Z,6.6
2023-02-04T11:16:50.443Z,6.6
2023-02-04T11:17:50.435Z,6.6
2023-02-04T11:18:50.447Z,6.6
2023-02-04T11:19:50.431Z,6.6
2023-02-04T11:20:50.477Z,6.6
2023-02-04T11:21:50.426Z,6.7
2023-02-04T11:22:50.452Z,6.7
2023-02-04T11:23:50.444Z,6.7
2023-02-04T11:24:50.456Z,6.6
2023-02-04T11:25:50.439Z,6.7
2023-02-04T11:26:51.669Z,6.5
2023-02-04T11:27:50.488Z,6.7
2023-02-04T11:28:50.432Z,6.7
2023-02-04T11:29:50.436Z,6.6
2023-02-04T11:30:50.519Z,6.7
2023-02-04T11:31:50.699Z,6.6
2023-02-04T11:32:50.437Z,6.7
2023-02-04T11:33:50.451Z,6.5
2023-02-04T11:34:50.470Z,6.6
2023-02-04T11:35:50.444Z,6.7
2023-02-04T11:36:50.429Z,6.6
2023-02-04T11:37:50.437Z,6.6
2023-02-04T11:38:50.443Z,6.6
2023-02-04T11:39:50.465Z,6.5
2023-02-04T11:40:50.430Z,6.6
2023-02-04T11:41:50.425Z,6.4
2023-02-04T11:42:50.819Z,6.4
2023-02-04T11:43:50.427Z,6.3
2023-02-04T11:44:50.427Z,6.4
2023-02-04T11:45:50.476Z,6.5
2023-02-04T11:46:50.436Z,6.6
2023-02-04T11:47:50.438Z,6.4
2023-02-04T11:48:50.436Z,6.4
2023-02-04T11:49:50.440Z,6.2
2023-02-04T11:50:50.471Z,6.3
2023-02-04T11:52:50.621Z,5.9
2023-02-04T11:53:50.699Z,5.9
2023-02-04T11:54:50.559Z,5.6
2023-02-04T11:55:50.440Z,5.8
2023-02-04T11:56:50.433Z,5.9
2023-02-04T11:57:50.431Z,6
2023-02-04T11:58:50.435Z,6.1
2023-02-04T11:59:50.443Z,6
2023-02-04T12:00:50.463Z,6
2023-02-04T12:01:50.442Z,6.1
2023-02-04T12:02:50.506Z,6.2
2023-02-04T12:03:50.556Z,6.1
2023-02-04T12:04:50.434Z,6.1
2023-02-04T12:05:50.441Z,6.1
2023-02-04T12:06:50.427Z,6.2
2023-02-04T12:07:50.479Z,6.2
2023-02-04T12:08:50.442Z,6.1
2023-02-04T12:09:50.431Z,6
2023-02-04T12:10:50.475Z,6
2023-02-04T12:11:50.441Z,6
2023-02-04T12:12:50.456Z,6
2023-02-04T12:13:50.505Z,5.9
2023-02-04T12:14:50.427Z,6
2023-02-04T12:15:50.512Z,5.9
2023-02-04T12:16:50.581Z,6
2023-02-04T12:17:50.450Z,5.9
2023-02-04T12:18:50.438Z,6
2023-02-04T12:19:50.438Z,6
2023-02-04T12:20:50.438Z,6.1
2023-02-04T12:21:50.444Z,6.1
2023-02-04T12:22:50.457Z,6.2
2023-02-04T12:23:50.454Z,6
2023-02-04T12:24:51.162Z,6
2023-02-04T12:25:50.461Z,5.9
2023-02-04T12:26:50.442Z,6
2023-02-04T12:27:50.515Z,6
2023-02-04T12:28:50.438Z,5.7
2023-02-04T12:29:50.455Z,5.9
2023-02-04T12:30:50.579Z,5.8
2023-02-04T12:31:50.577Z,5.8
2023-02-04T12:32:50.433Z,5.9
2023-02-04T12:33:50.441Z,5.9
2023-02-04T12:34:50.446Z,5.9
2023-02-04T12:35:50.441Z,5.9
2023-02-04T12:36:50.439Z,6
2023-02-04T12:37:50.429Z,6
2023-02-04T12:38:50.445Z,6.1
2023-02-04T12:39:50.434Z,6
2023-02-04T12:40:50.442Z,5.9
2023-02-04T12:41:50.432Z,6
2023-02-04T12:42:50.434Z,5.8
2023-02-04T12:43:50.480Z,5.5
2023-02-04T12:44:50.463Z,5.6
2023-02-04T12:45:50.454Z,5.5
2023-02-04T12:46:50.485Z,5.6
2023-02-04T12:47:50.451Z,5.8
2023-02-04T12:48:50.446Z,5.7
2023-02-04T12:49:50.433Z,5.6
2023-02-04T12:50:50.429Z,5.7
2023-02-04T12:51:50.441Z,5.7
2023-02-04T12:52:50.437Z,5.5
2023-02-04T12:53:50.437Z,5.6
2023-02-04T12:54:50.490Z,5.7
2023-02-04T12:55:50.438Z,5.5
2023-02-04T12:56:50.430Z,5.7
2023-02-04T12:57:50.434Z,5.8
2023-02-04T12:58:50.545Z,5.9
2023-02-04T12:59:50.430Z,6
2023-02-04T13:00:50.441Z,6.1
2023-02-04T13:01:50.457Z,6.1
2023-02-04T13:02:50.432Z,5.9
2023-02-04T13:03:50.431Z,5.8
2023-02-04T13:04:50.448Z,5.6
2023-02-04T13:05:50.454Z,5.6
2023-02-04T13:06:50.438Z,5.5
2023-02-04T13:07:50.423Z,5.6
2023-02-04T13:08:50.433Z,5.4
2023-02-04T13:09:50.439Z,5.3
2023-02-04T13:10:50.442Z,5.3
2023-02-04T13:11:50.433Z,5.3
2023-02-04T13:12:50.451Z,5.4
2023-02-04T13:13:50.455Z,5.6
2023-02-04T13:20:50.471Z,5.4
2023-02-04T13:21:50.435Z,5.4
2023-02-04T13:22:50.432Z,5.5
2023-02-04T13:23:50.429Z,5.6
2023-02-04T13:24:57.152Z,5.6
2023-02-04T13:25:50.466Z,5.6
2023-02-04T13:26:50.434Z,5.6
2023-02-04T13:27:50.501Z,5.8
2023-02-04T13:28:50.465Z,5.9
2023-02-04T13:29:50.435Z,5.6
2023-02-04T13:30:50.483Z,5.5
2023-02-04T13:31:50.457Z,5.5
2023-02-04T13:32:50.443Z,5.5
2023-02-04T13:33:50.446Z,5.5
2023-02-04T13:34:50.449Z,5.7
2023-02-04T13:35:50.476Z,5.8
2023-02-04T13:36:50.434Z,5.7
2023-02-04T13:37:50.443Z,5.7
2023-02-04T13:38:50.468Z,5.7
2023-02-04T13:39:50.450Z,5.5
2023-02-04T13:40:50.478Z,5.6
2023-02-04T13:41:50.433Z,5.7
2023-02-04T13:42:50.451Z,5.7
2023-02-04T13:43:50.482Z,5.7
2023-02-04T13:50:50.451Z,5
2023-02-04T13:51:50.444Z,5
2023-02-04T13:52:50.462Z,4.8
2023-02-04T13:53:50.536Z,4.7
2023-02-04T13:54:50.453Z,4.9
2023-02-04T13:55:50.434Z,5
2023-02-04T13:56:50.617Z,5
2023-02-04T13:57:50.457Z,5.1
2023-02-04T13:58:50.454Z,5.2
2023-02-04T13:59:50.476Z,5.5
2023-02-04T14:00:50.474Z,5.4
2023-02-04T14:01:50.484Z,5.4
2023-02-04T14:02:50.446Z,5.3
2023-02-04T14:03:50.469Z,5.2
2023-02-04T14:04:50.458Z,5.3
2023-02-04T14:05:50.448Z,5.4
2023-02-04T14:06:50.469Z,5.5
2023-02-04T14:07:50.457Z,5.7
2023-02-04T14:08:50.649Z,5.7
2023-02-04T14:09:50.456Z,5.2
2023-02-04T14:10:50.460Z,5.2
2023-02-04T14:11:50.453Z,5
2023-02-04T14:12:50.448Z,4.9
2023-02-04T14:13:50.452Z,4.6